Station Historical Data
Daily Summary for September 25, 2017 Units:  English    Metric   Both
« Previous Day
Next Day »
Daily Weekly Monthly Yearly Custom
  High: Low: Average:
Temperature: 90.9 °F 64.6 °F 77.3 °F
Dew Point: 71.8 °F 62.2 °F 67 °F
Humidity: 92% 41% 73%
Wind Speed: 7.0mph 0.0mph 0.9mph
Wind Gust: 10.0mph - -
Wind- - ESE
Pressure: 30.09 in 29.97 in -
Precipitation: 0.00 in    
Historical Graphs
 
 
Tabular Data for September 25, 2017
Time Temperature Dew Point Pressure Wind Wind Speed Wind Gust Humidity Rainfall Rate (Hourly)
00:04 70.9 °F 66.5 °F 30.07 in Calm     86% 0.00 in
00:09 70.7 °F 66.3 °F 30.07 in Calm     86% 0.00 in
00:14 70.5 °F 66.1 °F 30.07 in Calm     86% 0.00 in
00:19 70.4 °F 66.3 °F 30.07 in Calm     87% 0.00 in
00:24 70.3 °F 66.2 °F 30.07 in Calm     87% 0.00 in
00:29 70.2 °F 66.1 °F 30.07 in Calm     87% 0.00 in
00:39 70.1 °F 66.0 °F 30.07 in Calm     87% 0.00 in
00:44 69.9 °F 65.9 °F 30.07 in Calm     87% 0.00 in
00:49 69.9 °F 65.9 °F 30.07 in Calm     87% 0.00 in
00:54 69.7 °F 65.7 °F 30.07 in Calm     87% 0.00 in
00:59 69.5 °F 65.8 °F 30.07 in Calm     88% 0.00 in
01:04 69.3 °F 65.3 °F 30.07 in Calm     87% 0.00 in
01:09 69.0 °F 65.3 °F 30.07 in Calm     88% 0.00 in
01:14 68.8 °F 65.1 °F 30.07 in Calm     88% 0.00 in
01:19 68.5 °F 64.8 °F 30.07 in Calm     88% 0.00 in
01:24 68.3 °F 64.6 °F 30.07 in Calm     88% 0.00 in
01:29 68.1 °F 64.4 °F 30.07 in Calm     88% 0.00 in
01:34 68.0 °F 64.6 °F 30.07 in Calm     89% 0.00 in
01:39 67.9 °F 64.5 °F 30.07 in Calm     89% 0.00 in
01:44 68.0 °F 64.6 °F 30.07 in Calm     89% 0.00 in
01:49 67.9 °F 64.5 °F 30.07 in Calm     89% 0.00 in
01:54 67.9 °F 64.5 °F 30.07 in Calm     89% 0.00 in
01:59 67.7 °F 64.3 °F 30.07 in Calm     89% 0.00 in
02:04 67.7 °F 64.3 °F 30.07 in Calm     89% 0.00 in
02:09 67.7 °F 64.7 °F 30.06 in Calm     90% 0.00 in
02:14 67.7 °F 64.7 °F 30.06 in Calm     90% 0.00 in
02:19 67.7 °F 64.7 °F 30.06 in Calm     90% 0.00 in
02:24 67.6 °F 64.6 °F 30.06 in Calm     90% 0.00 in
02:29 67.4 °F 64.4 °F 30.06 in Calm     90% 0.00 in
02:34 67.4 °F 64.4 °F 30.06 in Calm     90% 0.00 in
02:39 67.2 °F 64.2 °F 30.06 in Calm     90% 0.00 in
02:44 67.1 °F 64.1 °F 30.06 in Calm     90% 0.00 in
02:49 67.0 °F 64.0 °F 30.06 in Calm     90% 0.00 in
02:54 67.0 °F 64.0 °F 30.06 in Calm     90% 0.00 in
02:59 66.9 °F 63.9 °F 30.06 in Calm     90% 0.00 in
03:04 67.0 °F 64.3 °F 30.06 in Calm     91% 0.00 in
03:09 66.9 °F 64.2 °F 30.06 in Calm     91% 0.00 in
03:14 66.9 °F 64.2 °F 30.06 in Calm     91% 0.00 in
03:19 66.9 °F 64.2 °F 30.06 in Calm     91% 0.00 in
03:24 66.8 °F 64.1 °F 30.06 in Calm     91% 0.00 in
03:29 66.7 °F 64.0 °F 30.06 in Calm     91% 0.00 in
03:34 66.6 °F 63.9 °F 30.06 in Calm     91% 0.00 in
03:39 66.4 °F 63.4 °F 30.06 in Calm     90% 0.00 in
03:44 66.3 °F 63.6 °F 30.06 in Calm     91% 0.00 in
03:49 66.3 °F 63.6 °F 30.05 in Calm     91% 0.00 in
03:54 66.1 °F 63.4 °F 30.05 in Calm     91% 0.00 in
03:59 66.3 °F 63.6 °F 30.05 in Calm     91% 0.00 in
04:04 66.3 °F 63.6 °F 30.05 in Calm     91% 0.00 in
04:09 66.2 °F 63.5 °F 30.05 in Calm     91% 0.00 in
04:14 66.3 °F 63.6 °F 30.05 in Calm     91% 0.00 in
04:19 66.2 °F 63.5 °F 30.05 in Calm     91% 0.00 in
04:24 66.1 °F 63.4 °F 30.05 in Calm     91% 0.00 in
04:29 66.0 °F 63.3 °F 30.05 in Calm     91% 0.00 in
04:34 65.9 °F 63.2 °F 30.05 in Calm     91% 0.00 in
04:39 65.8 °F 63.1 °F 30.05 in Calm     91% 0.00 in
04:44 65.8 °F 63.1 °F 30.05 in Calm     91% 0.00 in
04:49 65.6 °F 62.9 °F 30.05 in Calm     91% 0.00 in
04:54 65.4 °F 62.7 °F 30.05 in Calm     91% 0.00 in
04:59 65.3 °F 62.6 °F 30.05 in Calm     91% 0.00 in
05:04 65.3 °F 62.6 °F 30.05 in Calm     91% 0.00 in
05:09 65.2 °F 62.5 °F 30.05 in Calm     91% 0.00 in
05:14 65.2 °F 62.5 °F 30.05 in Calm     91% 0.00 in
05:19 65.2 °F 62.8 °F 30.05 in Calm     92% 0.00 in
05:24 65.3 °F 62.6 °F 30.05 in Calm     91% 0.00 in
05:29 65.3 °F 62.6 °F 30.05 in Calm     91% 0.00 in
05:34 65.2 °F 62.5 °F 30.05 in Calm     91% 0.00 in
05:39 65.0 °F 62.3 °F 30.06 in Calm     91% 0.00 in
05:44 65.0 °F 62.6 °F 30.06 in Calm     92% 0.00 in
05:49 65.0 °F 62.6 °F 30.06 in Calm     92% 0.00 in
05:54 65.0 °F 62.6 °F 30.06 in Calm     92% 0.00 in
05:59 65.0 °F 62.6 °F 30.06 in Calm     92% 0.00 in
06:04 64.9 °F 62.5 °F 30.06 in Calm     92% 0.00 in
06:09 64.8 °F 62.4 °F 30.06 in Calm     92% 0.00 in
06:14 64.8 °F 62.4 °F 30.06 in Calm     92% 0.00 in
06:19 64.8 °F 62.4 °F 30.06 in Calm     92% 0.00 in
06:24 64.7 °F 62.3 °F 30.06 in Calm     92% 0.00 in
06:29 64.6 °F 62.2 °F 30.06 in Calm     92% 0.00 in
06:39 64.8 °F 62.4 °F 30.07 in Calm     92% 0.00 in
06:44 64.8 °F 62.4 °F 30.07 in Calm     92% 0.00 in
06:49 64.9 °F 62.5 °F 30.07 in Calm     92% 0.00 in
06:54 65.0 °F 62.6 °F 30.07 in Calm     92% 0.00 in
06:59 65.1 °F 62.7 °F 30.07 in Calm     92% 0.00 in
07:04 65.1 °F 62.7 °F 30.07 in Calm     92% 0.00 in
07:09 65.3 °F 62.9 °F 30.07 in Calm     92% 0.00 in
07:14 65.2 °F 62.8 °F 30.08 in Calm     92% 0.00 in
07:19 65.0 °F 62.6 °F 30.08 in Calm     92% 0.00 in
07:24 65.0 °F 62.6 °F 30.08 in Calm     92% 0.00 in
07:29 64.9 °F 62.5 °F 30.08 in Calm     92% 0.00 in
07:34 65.1 °F 62.7 °F 30.08 in Calm     92% 0.00 in
07:39 65.4 °F 63.0 °F 30.08 in Calm     92% 0.00 in
07:44 65.7 °F 63.3 °F 30.08 in Calm     92% 0.00 in
07:49 66.0 °F 63.6 °F 30.08 in Calm     92% 0.00 in
07:54 66.4 °F 64.0 °F 30.08 in Calm     92% 0.00 in
07:59 66.6 °F 63.9 °F 30.08 in Calm     91% 0.00 in
08:04 67.0 °F 64.3 °F 30.09 in Calm     91% 0.00 in
08:09 67.2 °F 64.2 °F 30.08 in Calm     90% 0.00 in
08:14 67.6 °F 64.6 °F 30.08 in Calm     90% 0.00 in
08:19 68.0 °F 64.6 °F 30.09 in Calm     89% 0.00 in
08:24 68.3 °F 64.9 °F 30.09 in Calm     89% 0.00 in
08:29 68.9 °F 65.2 °F 30.09 in Calm     88% 0.00 in
08:34 69.3 °F 65.3 °F 30.09 in Calm     87% 0.00 in
08:39 70.0 °F 65.6 °F 30.09 in Calm     86% 0.00 in
08:44 70.8 °F 65.7 °F 30.09 in Calm     84% 0.00 in
08:49 71.5 °F 66.1 °F 30.09 in Calm     83% 0.00 in
08:54 72.1 °F 66.3 °F 30.09 in Calm     82% 0.00 in
08:59 72.7 °F 66.5 °F 30.09 in Calm     81% 0.00 in
09:04 73.0 °F 66.1 °F 30.09 in Calm     79% 0.00 in
09:09 73.3 °F 66.0 °F 30.08 in Calm     78% 0.00 in
09:14 73.6 °F 66.7 °F 30.08 in Calm     79% 0.00 in
09:19 74.0 °F 66.7 °F 30.08 in Calm     78% 0.00 in
09:24 74.3 °F 67.0 °F 30.09 in Calm     78% 0.00 in
09:29 74.7 °F 67.0 °F 30.09 in Calm     77% 0.00 in
09:34 75.4 °F 67.7 °F 30.09 in Calm     77% 0.00 in
09:39 76.3 °F 67.8 °F 30.09 in Calm     75% 0.00 in
09:44 76.4 °F 67.5 °F 30.08 in Calm     74% 0.00 in
09:49 77.0 °F 67.7 °F 30.09 in Calm     73% 0.00 in
09:54 77.4 °F 67.7 °F 30.09 in Calm     72% 0.00 in
09:59 77.8 °F 68.4 °F 30.08 in Calm     73% 0.00 in
10:04 78.9 °F 68.3 °F 30.08 in Calm     70% 0.00 in
10:09 79.1 °F 68.5 °F 30.08 in Calm     70% 0.00 in
10:14 79.7 °F 69.0 °F 30.08 in Calm     70% 0.00 in
10:19 80.6 °F 69.1 °F 30.08 in Calm     68% 0.00 in
10:24 81.3 °F 69.3 °F 30.08 in Calm     67% 0.00 in
10:29 81.6 °F 69.1 °F 30.08 in SE 1.0 mph 4.0 mph 66% 0.00 in
10:34 82.0 °F 69.5 °F 30.08 in SE 1.0 mph 5.0 mph 66% 0.00 in
10:39 82.1 °F 69.2 °F 30.08 in SE 2.0 mph 5.0 mph 65% 0.00 in
10:44 82.6 °F 69.6 °F 30.08 in SSE 2.0 mph 4.0 mph 65% 0.00 in
10:49 83.1 °F 69.7 °F 30.08 in SSE 3.0 mph 3.0 mph 64% 0.00 in
10:54 83.7 °F 70.2 °F 30.08 in SSE 2.0 mph 3.0 mph 64% 0.00 in
10:59 84.1 °F 68.7 °F 30.08 in ENE 3.0 mph 6.0 mph 60% 0.00 in
11:04 84.1 °F 69.2 °F 30.07 in SSE 3.0 mph 4.0 mph 61% 0.00 in
11:09 84.2 °F 68.8 °F 30.07 in ESE 2.0 mph 5.0 mph 60% 0.00 in
11:14 84.7 °F 69.3 °F 30.07 in SE 3.0 mph 5.0 mph 60% 0.00 in
11:19 85.1 °F 69.2 °F 30.07 in East 2.0 mph 6.0 mph 59% 0.00 in
11:24 85.5 °F 69.5 °F 30.07 in ESE 2.0 mph 6.0 mph 59% 0.00 in
11:29 85.9 °F 70.4 °F 30.07 in ESE 1.0 mph 4.0 mph 60% 0.00 in
11:34 86.6 °F 69.0 °F 30.07 in Calm     56% 0.00 in
11:39 86.1 °F 68.6 °F 30.07 in SSE 1.0 mph 6.0 mph 56% 0.00 in
11:44 86.5 °F 69.5 °F 30.07 in SE 2.0 mph 7.0 mph 57% 0.00 in
11:49 86.4 °F 69.9 °F 30.06 in SE 2.0 mph 7.0 mph 58% 0.00 in
11:54 86.3 °F 70.3 °F 30.06 in SE 1.0 mph 4.0 mph 59% 0.00 in
11:59 86.9 °F 69.3 °F 30.06 in South 1.0 mph 4.0 mph 56% 0.00 in
12:04 87.9 °F 70.2 °F 30.06 in South 2.0 mph 5.0 mph 56% 0.00 in
12:09 87.3 °F 68.1 °F 30.06 in South 2.0 mph 7.0 mph 53% 0.00 in
12:14 86.8 °F 69.2 °F 30.06 in SE 1.0 mph 3.0 mph 56% 0.00 in
12:19 87.0 °F 69.4 °F 30.06 in Calm   6.0 mph 56% 0.00 in
12:24 87.7 °F 69.0 °F 30.06 in ESE 2.0 mph 6.0 mph 54% 0.00 in
12:29 87.8 °F 69.1 °F 30.06 in South 2.0 mph 6.0 mph 54% 0.00 in
12:34 87.6 °F 69.4 °F 30.06 in WNW 1.0 mph 4.0 mph 55% 0.00 in
12:39 88.2 °F 70.0 °F 30.06 in SSE 1.0 mph 5.0 mph 55% 0.00 in
12:44 88.5 °F 69.2 °F 30.06 in East 1.0 mph 5.0 mph 53% 0.00 in
12:49 89.2 °F 70.4 °F 30.05 in East 2.0 mph 6.0 mph 54% 0.00 in
12:54 88.8 °F 69.5 °F 30.05 in ENE 1.0 mph 7.0 mph 53% 0.00 in
12:59 88.3 °F 69.5 °F 30.05 in ENE 2.0 mph 7.0 mph 54% 0.00 in
13:04 89.0 °F 69.6 °F 30.05 in East 2.0 mph 7.0 mph 53% 0.00 in
13:09 89.3 °F 70.5 °F 30.05 in SE 3.0 mph 7.0 mph 54% 0.00 in
13:14 89.4 °F 68.3 °F 30.05 in SE 3.0 mph 7.0 mph 50% 0.00 in
13:19 89.2 °F 70.4 °F 30.05 in Calm   5.0 mph 54% 0.00 in
13:24 89.4 °F 71.1 °F 30.05 in East 1.0 mph 7.0 mph 55% 0.00 in
13:29 89.3 °F 71.5 °F 30.04 in Calm   3.0 mph 56% 0.00 in
13:34 89.9 °F 70.5 °F 30.04 in SE 2.0 mph 5.0 mph 53% 0.00 in
13:39 89.8 °F 70.9 °F 30.03 in East 5.0 mph 9.0 mph 54% 0.00 in
13:44 89.3 °F 70.5 °F 30.03 in ESE 4.0 mph 8.0 mph 54% 0.00 in
13:49 89.3 °F 69.9 °F 30.03 in ENE 4.0 mph 9.0 mph 53% 0.00 in
13:54 89.7 °F 69.2 °F 30.03 in ENE 3.0 mph 9.0 mph 51% 0.00 in
13:59 89.9 °F 68.2 °F 30.03 in SSE 2.0 mph 7.0 mph 49% 0.00 in
14:04 90.6 °F 68.8 °F 30.03 in South 3.0 mph 7.0 mph 49% 0.00 in
14:09 90.4 °F 69.2 °F 30.03 in South 3.0 mph 7.0 mph 50% 0.00 in
14:14 90.1 °F 69.5 °F 30.03 in SSE 3.0 mph 7.0 mph 51% 0.00 in
14:19 90.2 °F 67.9 °F 30.02 in SSW 1.0 mph 6.0 mph 48% 0.00 in
14:24 90.2 °F 67.2 °F 30.02 in SSE 2.0 mph 5.0 mph 47% 0.00 in
14:29 89.5 °F 67.2 °F 30.02 in Calm   5.0 mph 48% 0.00 in
14:34 89.7 °F 68.6 °F 30.02 in SSE 2.0 mph 3.0 mph 50% 0.00 in
14:39 89.6 °F 69.1 °F 30.02 in ENE 3.0 mph 5.0 mph 51% 0.00 in
14:49 90.4 °F 69.2 °F 30.01 in East 2.0 mph 8.0 mph 50% 0.00 in
14:54 90.3 °F 69.7 °F 30.01 in East 2.0 mph 8.0 mph 51% 0.00 in
14:59 90.5 °F 69.9 °F 30.01 in East 2.0 mph 6.0 mph 51% 0.00 in
15:04 90.2 °F 70.2 °F 30.01 in SSE 2.0 mph 6.0 mph 52% 0.00 in
15:09 89.9 °F 68.8 °F 30.01 in SSE 3.0 mph 7.0 mph 50% 0.00 in
15:14 89.5 °F 69.5 °F 30.00 in South 3.0 mph 7.0 mph 52% 0.00 in
15:19 89.5 °F 68.4 °F 30.00 in Calm   4.0 mph 50% 0.00 in
15:24 89.9 °F 69.3 °F 30.00 in ENE 2.0 mph 8.0 mph 51% 0.00 in
15:29 89.9 °F 69.3 °F 30.00 in ENE 3.0 mph 8.0 mph 51% 0.00 in
15:34 89.8 °F 68.7 °F 30.00 in Calm   4.0 mph 50% 0.00 in
15:39 89.9 °F 68.2 °F 30.00 in Calm     49% 0.00 in
15:44 90.4 °F 69.2 °F 30.00 in Calm     50% 0.00 in
15:49 90.9 °F 69.1 °F 30.00 in East 2.0 mph 5.0 mph 49% 0.00 in
15:54 90.5 °F 68.7 °F 30.00 in ESE 2.0 mph 5.0 mph 49% 0.00 in
15:59 90.1 °F 67.8 °F 29.99 in SSE 2.0 mph 5.0 mph 48% 0.00 in
16:04 89.9 °F 68.2 °F 29.99 in East 3.0 mph 5.0 mph 49% 0.00 in
16:09 90.2 °F 67.9 °F 29.99 in NE 4.0 mph 7.0 mph 48% 0.00 in
16:14 89.8 °F 66.9 °F 29.99 in Calm   6.0 mph 47% 0.00 in
16:19 90.1 °F 67.2 °F 29.99 in ENE 4.0 mph 8.0 mph 47% 0.00 in
16:24 90.1 °F 67.8 °F 29.99 in ENE 4.0 mph 8.0 mph 48% 0.00 in
16:29 89.9 °F 67.0 °F 29.99 in East 3.0 mph 8.0 mph 47% 0.00 in
16:34 89.9 °F 67.0 °F 29.99 in SE 2.0 mph 5.0 mph 47% 0.00 in
16:39 90.3 °F 68.5 °F 29.99 in ESE 2.0 mph 6.0 mph 49% 0.00 in
16:44 90.5 °F 66.9 °F 29.99 in Calm   5.0 mph 46% 0.00 in
16:54 90.6 °F 65.7 °F 29.99 in ENE 3.0 mph 7.0 mph 44% 0.00 in
16:59 90.8 °F 65.2 °F 29.99 in SSE 2.0 mph 5.0 mph 43% 0.00 in
17:04 90.8 °F 65.2 °F 29.99 in East 2.0 mph 5.0 mph 43% 0.00 in
17:09 90.6 °F 63.7 °F 29.98 in ESE 1.0 mph 7.0 mph 41% 0.00 in
17:14 90.2 °F 65.3 °F 29.98 in SSE 4.0 mph 7.0 mph 44% 0.00 in
17:19 90.1 °F 66.5 °F 29.98 in ESE 4.0 mph 5.0 mph 46% 0.00 in
17:24 90.0 °F 66.4 °F 29.98 in ESE 2.0 mph 6.0 mph 46% 0.00 in
17:29 89.8 °F 63.6 °F 29.98 in ESE 3.0 mph 6.0 mph 42% 0.00 in
17:34 89.7 °F 64.9 °F 29.98 in SE 2.0 mph 5.0 mph 44% 0.00 in
17:39 89.7 °F 66.8 °F 29.98 in Calm   3.0 mph 47% 0.00 in
17:44 89.0 °F 68.5 °F 29.98 in East 1.0 mph 7.0 mph 51% 0.00 in
17:49 88.2 °F 68.4 °F 29.98 in ENE 2.0 mph 7.0 mph 52% 0.00 in
17:54 87.9 °F 68.6 °F 29.98 in ENE 2.0 mph 6.0 mph 53% 0.00 in
17:59 87.5 °F 68.8 °F 29.98 in NE 4.0 mph 9.0 mph 54% 0.00 in
18:04 87.2 °F 68.5 °F 29.98 in NE 1.0 mph 7.0 mph 54% 0.00 in
18:09 86.9 °F 68.8 °F 29.98 in NE 1.0 mph 7.0 mph 55% 0.00 in
18:14 86.7 °F 68.6 °F 29.97 in NE 2.0 mph 7.0 mph 55% 0.00 in
18:19 86.6 °F 69.0 °F 29.98 in NE 1.0 mph 5.0 mph 56% 0.00 in
18:24 86.4 °F 68.8 °F 29.98 in NE 3.0 mph 8.0 mph 56% 0.00 in
18:29 86.2 °F 69.7 °F 29.98 in NE 3.0 mph 8.0 mph 58% 0.00 in
18:34 85.7 °F 70.7 °F 29.98 in NE 4.0 mph 10.0 mph 61% 0.00 in
18:39 85.3 °F 71.3 °F 29.98 in ENE 5.0 mph 10.0 mph 63% 0.00 in
18:44 84.8 °F 71.7 °F 29.98 in ENE 4.0 mph 8.0 mph 65% 0.00 in
18:49 84.4 °F 71.8 °F 29.98 in ENE 4.0 mph 7.0 mph 66% 0.00 in
18:54 83.9 °F 71.8 °F 29.98 in ENE 5.0 mph 7.0 mph 67% 0.00 in
18:59 83.5 °F 71.4 °F 29.98 in NE 4.0 mph 10.0 mph 67% 0.00 in
19:04 83.2 °F 71.5 °F 29.98 in ENE 4.0 mph 10.0 mph 68% 0.00 in
19:09 82.9 °F 71.3 °F 29.98 in NE 5.0 mph 10.0 mph 68% 0.00 in
19:14 82.7 °F 71.1 °F 29.97 in NE 3.0 mph 9.0 mph 68% 0.00 in
19:19 82.4 °F 71.2 °F 29.97 in ENE 7.0 mph 9.0 mph 69% 0.00 in
19:24 82.3 °F 71.1 °F 29.97 in ENE 4.0 mph 9.0 mph 69% 0.00 in
19:29 81.9 °F 71.2 °F 29.97 in NE 4.0 mph 9.0 mph 70% 0.00 in
19:34 81.6 °F 70.9 °F 29.97 in NE 3.0 mph 6.0 mph 70% 0.00 in
19:39 81.2 °F 70.9 °F 29.98 in NE 1.0 mph 5.0 mph 71% 0.00 in
19:54 80.5 °F 70.6 °F 29.98 in NE 3.0 mph 5.0 mph 72% 0.00 in
19:59 80.2 °F 70.8 °F 29.98 in NE 1.0 mph 5.0 mph 73% 0.00 in
20:04 80.0 °F 70.6 °F 29.98 in NE 1.0 mph 4.0 mph 73% 0.00 in
20:09 79.8 °F 70.4 °F 29.98 in NE 1.0 mph 4.0 mph 73% 0.00 in
20:14 79.5 °F 70.5 °F 29.98 in NE 1.0 mph 4.0 mph 74% 0.00 in
20:19 79.3 °F 70.3 °F 29.98 in Calm   4.0 mph 74% 0.00 in
20:24 79.1 °F 70.1 °F 29.98 in NE 4.0 mph 4.0 mph 74% 0.00 in
20:29 79.1 °F 70.1 °F 29.99 in Calm   4.0 mph 74% 0.00 in
20:34 78.9 °F 69.9 °F 29.98 in ENE 3.0 mph 3.0 mph 74% 0.00 in
20:39 78.8 °F 69.8 °F 29.98 in Calm   3.0 mph 74% 0.00 in
20:44 78.7 °F 70.1 °F 29.99 in East 3.0 mph 4.0 mph 75% 0.00 in
20:49 78.5 °F 69.9 °F 29.99 in Calm   3.0 mph 75% 0.00 in
20:54 78.4 °F 69.8 °F 29.98 in Calm   3.0 mph 75% 0.00 in
20:59 78.1 °F 69.5 °F 29.98 in Calm   3.0 mph 75% 0.00 in
21:04 77.9 °F 69.7 °F 29.98 in Calm   3.0 mph 76% 0.00 in
21:09 77.8 °F 69.6 °F 29.98 in Calm   3.0 mph 76% 0.00 in
21:14 77.6 °F 69.4 °F 29.98 in Calm     76% 0.00 in
21:19 77.4 °F 69.2 °F 29.98 in Calm     76% 0.00 in
21:24 77.3 °F 69.1 °F 29.98 in Calm     76% 0.00 in
21:29 77.1 °F 69.3 °F 29.98 in Calm     77% 0.00 in
21:34 77.0 °F 69.2 °F 29.98 in Calm     77% 0.00 in
21:39 76.9 °F 69.1 °F 29.98 in Calm     77% 0.00 in
21:44 76.7 °F 68.9 °F 29.98 in Calm   2.0 mph 77% 0.00 in
21:49 76.7 °F 68.9 °F 29.98 in Calm     77% 0.00 in
21:54 76.6 °F 68.8 °F 29.98 in Calm     77% 0.00 in
21:59 76.4 °F 68.7 °F 29.97 in Calm     77% 0.00 in
22:04 76.2 °F 68.5 °F 29.97 in Calm     77% 0.00 in
22:09 76.0 °F 68.3 °F 29.98 in Calm     77% 0.00 in
22:14 75.8 °F 68.1 °F 29.97 in Calm     77% 0.00 in
22:19 75.6 °F 68.3 °F 29.97 in Calm     78% 0.00 in
22:24 75.4 °F 68.1 °F 29.97 in Calm     78% 0.00 in
22:29 75.2 °F 67.9 °F 29.97 in Calm     78% 0.00 in
22:34 75.0 °F 67.7 °F 29.97 in Calm     78% 0.00 in
22:44 74.7 °F 67.8 °F 29.97 in Calm     79% 0.00 in
22:49 74.6 °F 67.7 °F 29.98 in Calm     79% 0.00 in
22:54 74.4 °F 67.5 °F 29.97 in Calm     79% 0.00 in
22:59 74.3 °F 67.4 °F 29.97 in Calm     79% 0.00 in
23:04 74.2 °F 67.6 °F 29.97 in Calm     80% 0.00 in
23:09 74.0 °F 67.4 °F 29.97 in Calm     80% 0.00 in
23:19 73.7 °F 67.5 °F 29.97 in Calm     81% 0.00 in
23:34 73.4 °F 67.2 °F 29.97 in Calm     81% 0.00 in
23:39 73.2 °F 67.0 °F 29.97 in Calm     81% 0.00 in
23:44 73.1 °F 67.3 °F 29.97 in Calm     82% 0.00 in
23:49 73.0 °F 67.2 °F 29.97 in Calm     82% 0.00 in
23:54 72.9 °F 67.1 °F 29.97 in Calm     82% 0.00 in
23:59 72.7 °F 66.9 °F 29.97 in Calm     82% 0.00 in
Buffalo, New York, USA
Compliments of Weather Underground - 2.25 mb